sensor_id;sensor_type;location;lat;lon;timestamp;P1;durP1;ratioP1;P2;durP2;ratioP2
21894;SDS011;11112;51.270;7.224;2023-08-30T00:00:03;6.47;;;3.25;;
21894;SDS011;11112;51.270;7.224;2023-08-30T00:02:32;6.55;;;3.30;;
21894;SDS011;11112;51.270;7.224;2023-08-30T00:04:59;5.05;;;3.35;;
21894;SDS011;11112;51.270;7.224;2023-08-30T00:07:26;7.05;;;3.85;;
21894;SDS011;11112;51.270;7.224;2023-08-30T00:09:53;6.85;;;3.88;;
21894;SDS011;11112;51.270;7.224;2023-08-30T00:12:21;6.40;;;3.65;;
21894;SDS011;11112;51.270;7.224;2023-08-30T00:14:49;7.78;;;4.05;;
21894;SDS011;11112;51.270;7.224;2023-08-30T00:17:16;5.07;;;3.45;;
21894;SDS011;11112;51.270;7.224;2023-08-30T00:19:44;5.00;;;3.33;;
21894;SDS011;11112;51.270;7.224;2023-08-30T00:22:13;7.00;;;3.70;;
21894;SDS011;11112;51.270;7.224;2023-08-30T00:24:40;6.30;;;3.90;;
21894;SDS011;11112;51.270;7.224;2023-08-30T00:27:07;6.97;;;4.07;;
21894;SDS011;11112;51.270;7.224;2023-08-30T00:29:35;7.78;;;4.32;;
21894;SDS011;11112;51.270;7.224;2023-08-30T00:32:03;7.25;;;4.85;;
21894;SDS011;11112;51.270;7.224;2023-08-30T00:34:30;8.68;;;4.80;;
21894;SDS011;11112;51.270;7.224;2023-08-30T00:36:57;8.23;;;4.70;;
21894;SDS011;11112;51.270;7.224;2023-08-30T00:39:24;6.15;;;4.60;;
21894;SDS011;11112;51.270;7.224;2023-08-30T00:41:51;9.23;;;5.20;;
21894;SDS011;11112;51.270;7.224;2023-08-30T00:44:18;8.75;;;5.60;;
21894;SDS011;11112;51.270;7.224;2023-08-30T00:46:46;8.95;;;5.97;;
21894;SDS011;11112;51.270;7.224;2023-08-30T00:49:13;10.20;;;5.45;;
21894;SDS011;11112;51.270;7.224;2023-08-30T00:51:40;9.70;;;5.72;;
21894;SDS011;11112;51.270;7.224;2023-08-30T00:54:07;9.25;;;5.72;;
21894;SDS011;11112;51.270;7.224;2023-08-30T00:56:34;7.55;;;5.53;;
21894;SDS011;11112;51.270;7.224;2023-08-30T00:59:02;8.25;;;5.13;;
21894;SDS011;11112;51.270;7.224;2023-08-30T01:01:29;7.40;;;5.13;;
21894;SDS011;11112;51.270;7.224;2023-08-30T01:03:57;9.70;;;5.88;;
21894;SDS011;11112;51.270;7.224;2023-08-30T01:06:25;14.02;;;6.85;;
21894;SDS011;11112;51.270;7.224;2023-08-30T01:08:53;9.82;;;6.45;;
21894;SDS011;11112;51.270;7.224;2023-08-30T01:11:21;8.60;;;6.13;;
21894;SDS011;11112;51.270;7.224;2023-08-30T01:13:56;10.63;;;6.20;;
21894;SDS011;11112;51.270;7.224;2023-08-30T01:16:32;7.88;;;5.53;;
21894;SDS011;11112;51.270;7.224;2023-08-30T01:19:04;9.30;;;5.68;;
21894;SDS011;11112;51.270;7.224;2023-08-30T01:21:48;8.93;;;5.60;;
21894;SDS011;11112;51.270;7.224;2023-08-30T01:24:23;9.23;;;6.07;;
21894;SDS011;11112;51.270;7.224;2023-08-30T01:27:05;9.45;;;5.65;;
21894;SDS011;11112;51.270;7.224;2023-08-30T01:29:37;7.00;;;5.63;;
21894;SDS011;11112;51.270;7.224;2023-08-30T01:32:07;9.63;;;5.80;;
21894;SDS011;11112;51.270;7.224;2023-08-30T01:34:36;6.95;;;5.25;;
21894;SDS011;11112;51.270;7.224;2023-08-30T01:37:06;8.90;;;4.95;;
21894;SDS011;11112;51.270;7.224;2023-08-30T01:39:34;7.57;;;4.68;;
21894;SDS011;11112;51.270;7.224;2023-08-30T01:42:02;8.60;;;4.85;;
21894;SDS011;11112;51.270;7.224;2023-08-30T01:44:33;9.23;;;5.00;;
21894;SDS011;11112;51.270;7.224;2023-08-30T01:47:02;9.25;;;4.72;;
21894;SDS011;11112;51.270;7.224;2023-08-30T01:49:30;6.28;;;4.40;;
21894;SDS011;11112;51.270;7.224;2023-08-30T01:51:58;10.57;;;5.25;;
21894;SDS011;11112;51.270;7.224;2023-08-30T01:54:27;8.18;;;6.30;;
21894;SDS011;11112;51.270;7.224;2023-08-30T01:56:55;11.43;;;6.85;;
21894;SDS011;11112;51.270;7.224;2023-08-30T01:59:24;10.88;;;7.15;;
21894;SDS011;11112;51.270;7.224;2023-08-30T02:01:51;9.77;;;7.15;;
21894;SDS011;11112;51.270;7.224;2023-08-30T02:04:18;10.07;;;7.40;;
21894;SDS011;11112;51.270;7.224;2023-08-30T02:06:47;9.68;;;7.32;;
21894;SDS011;11112;51.270;7.224;2023-08-30T02:09:21;10.45;;;7.50;;
21894;SDS011;11112;51.270;7.224;2023-08-30T02:11:54;10.48;;;8.00;;
21894;SDS011;11112;51.270;7.224;2023-08-30T02:14:26;10.82;;;7.93;;
21894;SDS011;11112;51.270;7.224;2023-08-30T02:16:54;12.68;;;8.35;;
21894;SDS011;11112;51.270;7.224;2023-08-30T02:19:22;11.52;;;8.55;;
21894;SDS011;11112;51.270;7.224;2023-08-30T02:21:49;13.82;;;9.27;;
21894;SDS011;11112;51.270;7.224;2023-08-30T02:24:17;11.93;;;8.60;;
21894;SDS011;11112;51.270;7.224;2023-08-30T02:26:44;11.43;;;9.02;;
21894;SDS011;11112;51.270;7.224;2023-08-30T02:29:11;9.85;;;8.50;;
21894;SDS011;11112;51.270;7.224;2023-08-30T02:31:40;12.68;;;9.05;;
21894;SDS011;11112;51.270;7.224;2023-08-30T02:34:07;12.70;;;9.00;;
21894;SDS011;11112;51.270;7.224;2023-08-30T02:36:34;10.85;;;9.20;;
21894;SDS011;11112;51.270;7.224;2023-08-30T02:39:01;11.48;;;9.50;;
21894;SDS011;11112;51.270;7.224;2023-08-30T02:41:28;12.05;;;9.57;;
21894;SDS011;11112;51.270;7.224;2023-08-30T02:43:55;12.68;;;9.27;;
21894;SDS011;11112;51.270;7.224;2023-08-30T02:46:22;14.07;;;9.40;;
21894;SDS011;11112;51.270;7.224;2023-08-30T02:48:51;12.90;;;10.32;;
21894;SDS011;11112;51.270;7.224;2023-08-30T02:51:20;11.70;;;9.55;;
21894;SDS011;11112;51.270;7.224;2023-08-30T02:53:48;12.98;;;9.88;;
21894;SDS011;11112;51.270;7.224;2023-08-30T02:56:15;12.18;;;9.55;;
21894;SDS011;11112;51.270;7.224;2023-08-30T02:58:41;12.90;;;9.10;;
21894;SDS011;11112;51.270;7.224;2023-08-30T03:01:08;11.20;;;8.02;;
21894;SDS011;11112;51.270;7.224;2023-08-30T03:03:36;13.82;;;8.93;;
21894;SDS011;11112;51.270;7.224;2023-08-30T03:06:04;13.93;;;9.30;;
21894;SDS011;11112;51.270;7.224;2023-08-30T03:08:31;11.85;;;10.13;;
21894;SDS011;11112;51.270;7.224;2023-08-30T03:11:07;13.45;;;11.10;;
21894;SDS011;11112;51.270;7.224;2023-08-30T03:13:35;13.02;;;10.80;;
21894;SDS011;11112;51.270;7.224;2023-08-30T03:16:14;13.35;;;10.85;;
21894;SDS011;11112;51.270;7.224;2023-08-30T03:18:43;14.90;;;11.38;;
21894;SDS011;11112;51.270;7.224;2023-08-30T03:21:12;15.57;;;11.27;;
21894;SDS011;11112;51.270;7.224;2023-08-30T03:23:40;15.45;;;12.13;;
21894;SDS011;11112;51.270;7.224;2023-08-30T03:26:07;15.27;;;12.65;;
21894;SDS011;11112;51.270;7.224;2023-08-30T03:28:35;15.20;;;12.07;;
21894;SDS011;11112;51.270;7.224;2023-08-30T03:31:10;16.02;;;11.98;;
21894;SDS011;11112;51.270;7.224;2023-08-30T03:33:39;15.43;;;11.52;;
21894;SDS011;11112;51.270;7.224;2023-08-30T03:36:07;13.65;;;9.65;;
21894;SDS011;11112;51.270;7.224;2023-08-30T03:38:37;11.30;;;8.50;;
21894;SDS011;11112;51.270;7.224;2023-08-30T03:41:04;12.57;;;8.07;;
21894;SDS011;11112;51.270;7.224;2023-08-30T03:43:32;12.00;;;8.15;;
21894;SDS011;11112;51.270;7.224;2023-08-30T03:46:00;12.68;;;8.45;;
21894;SDS011;11112;51.270;7.224;2023-08-30T03:48:28;11.02;;;8.75;;
21894;SDS011;11112;51.270;7.224;2023-08-30T03:50:56;12.35;;;8.52;;
21894;SDS011;11112;51.270;7.224;2023-08-30T03:53:24;12.35;;;8.98;;
21894;SDS011;11112;51.270;7.224;2023-08-30T03:55:53;12.73;;;9.18;;
21894;SDS011;11112;51.270;7.224;2023-08-30T03:58:20;11.30;;;9.23;;
21894;SDS011;11112;51.270;7.224;2023-08-30T04:00:47;11.77;;;9.20;;
21894;SDS011;11112;51.270;7.224;2023-08-30T04:03:14;11.93;;;9.48;;
21894;SDS011;11112;51.270;7.224;2023-08-30T04:05:42;12.52;;;9.88;;
21894;SDS011;11112;51.270;7.224;2023-08-30T04:08:09;11.80;;;9.30;;
21894;SDS011;11112;51.270;7.224;2023-08-30T04:10:37;12.27;;;9.52;;
21894;SDS011;11112;51.270;7.224;2023-08-30T04:13:07;11.68;;;9.13;;
21894;SDS011;11112;51.270;7.224;2023-08-30T04:15:34;13.10;;;9.48;;
21894;SDS011;11112;51.270;7.224;2023-08-30T04:18:02;11.85;;;8.95;;
21894;SDS011;11112;51.270;7.224;2023-08-30T04:20:31;11.77;;;9.25;;
21894;SDS011;11112;51.270;7.224;2023-08-30T04:22:59;12.55;;;10.88;;
21894;SDS011;11112;51.270;7.224;2023-08-30T04:25:28;15.25;;;11.30;;
21894;SDS011;11112;51.270;7.224;2023-08-30T04:27:55;14.38;;;11.07;;
21894;SDS011;11112;51.270;7.224;2023-08-30T04:30:24;16.35;;;11.13;;
21894;SDS011;11112;51.270;7.224;2023-08-30T04:32:51;17.65;;;13.63;;
21894;SDS011;11112;51.270;7.224;2023-08-30T04:35:18;18.15;;;14.35;;
21894;SDS011;11112;51.270;7.224;2023-08-30T04:37:45;17.02;;;14.63;;
21894;SDS011;11112;51.270;7.224;2023-08-30T04:40:15;18.30;;;14.25;;
21894;SDS011;11112;51.270;7.224;2023-08-30T04:42:42;14.15;;;10.93;;
21894;SDS011;11112;51.270;7.224;2023-08-30T04:45:09;13.82;;;11.30;;
21894;SDS011;11112;51.270;7.224;2023-08-30T04:47:38;14.93;;;11.43;;
21894;SDS011;11112;51.270;7.224;2023-08-30T04:50:05;13.35;;;11.63;;
21894;SDS011;11112;51.270;7.224;2023-08-30T04:52:33;16.08;;;12.05;;
21894;SDS011;11112;51.270;7.224;2023-08-30T04:55:00;15.27;;;12.38;;
21894;SDS011;11112;51.270;7.224;2023-08-30T04:57:27;13.65;;;12.18;;
21894;SDS011;11112;51.270;7.224;2023-08-30T04:59:54;16.10;;;12.15;;
21894;SDS011;11112;51.270;7.224;2023-08-30T05:02:21;17.20;;;13.55;;
21894;SDS011;11112;51.270;7.224;2023-08-30T05:04:50;17.08;;;14.23;;
21894;SDS011;11112;51.270;7.224;2023-08-30T05:07:17;20.38;;;16.65;;
21894;SDS011;11112;51.270;7.224;2023-08-30T05:09:44;19.70;;;16.92;;
21894;SDS011;11112;51.270;7.224;2023-08-30T05:12:12;19.73;;;16.80;;
21894;SDS011;11112;51.270;7.224;2023-08-30T05:14:39;18.73;;;16.48;;
21894;SDS011;11112;51.270;7.224;2023-08-30T05:17:06;20.50;;;15.77;;
21894;SDS011;11112;51.270;7.224;2023-08-30T05:19:33;19.60;;;16.15;;
21894;SDS011;11112;51.270;7.224;2023-08-30T05:22:02;21.13;;;16.60;;
21894;SDS011;11112;51.270;7.224;2023-08-30T05:24:29;21.52;;;16.95;;
21894;SDS011;11112;51.270;7.224;2023-08-30T05:26:56;20.92;;;16.15;;
21894;SDS011;11112;51.270;7.224;2023-08-30T05:29:23;20.85;;;16.83;;
21894;SDS011;11112;51.270;7.224;2023-08-30T05:31:50;20.50;;;17.33;;
21894;SDS011;11112;51.270;7.224;2023-08-30T05:34:17;21.40;;;16.27;;
21894;SDS011;11112;51.270;7.224;2023-08-30T05:36:44;25.80;;;19.95;;
21894;SDS011;11112;51.270;7.224;2023-08-30T05:39:12;23.92;;;19.63;;
21894;SDS011;11112;51.270;7.224;2023-08-30T05:41:39;24.50;;;20.70;;
21894;SDS011;11112;51.270;7.224;2023-08-30T05:44:07;25.33;;;21.15;;
21894;SDS011;11112;51.270;7.224;2023-08-30T05:46:34;25.67;;;22.05;;
21894;SDS011;11112;51.270;7.224;2023-08-30T05:49:01;25.63;;;21.92;;
21894;SDS011;11112;51.270;7.224;2023-08-30T05:51:28;26.60;;;23.15;;
21894;SDS011;11112;51.270;7.224;2023-08-30T05:53:55;28.58;;;23.80;;
21894;SDS011;11112;51.270;7.224;2023-08-30T05:56:23;26.98;;;23.08;;
21894;SDS011;11112;51.270;7.224;2023-08-30T05:58:50;28.65;;;24.02;;
21894;SDS011;11112;51.270;7.224;2023-08-30T06:01:19;29.80;;;23.38;;
21894;SDS011;11112;51.270;7.224;2023-08-30T06:03:46;28.83;;;23.20;;
21894;SDS011;11112;51.270;7.224;2023-08-30T06:06:13;28.70;;;23.83;;
21894;SDS011;11112;51.270;7.224;2023-08-30T06:08:42;29.25;;;23.38;;
21894;SDS011;11112;51.270;7.224;2023-08-30T06:11:10;27.00;;;24.10;;
21894;SDS011;11112;51.270;7.224;2023-08-30T06:13:38;26.23;;;22.75;;
21894;SDS011;11112;51.270;7.224;2023-08-30T06:16:05;29.88;;;24.00;;
21894;SDS011;11112;51.270;7.224;2023-08-30T06:18:32;30.90;;;23.85;;
21894;SDS011;11112;51.270;7.224;2023-08-30T06:21:00;27.35;;;23.42;;
21894;SDS011;11112;51.270;7.224;2023-08-30T06:23:29;27.83;;;22.90;;
21894;SDS011;11112;51.270;7.224;2023-08-30T06:25:56;28.60;;;23.80;;
21894;SDS011;11112;51.270;7.224;2023-08-30T06:28:24;31.10;;;24.10;;
21894;SDS011;11112;51.270;7.224;2023-08-30T06:30:53;26.73;;;21.75;;
21894;SDS011;11112;51.270;7.224;2023-08-30T06:33:22;27.50;;;22.00;;
21894;SDS011;11112;51.270;7.224;2023-08-30T06:35:49;27.13;;;22.33;;
21894;SDS011;11112;51.270;7.224;2023-08-30T06:38:18;28.80;;;23.10;;
21894;SDS011;11112;51.270;7.224;2023-08-30T06:40:45;26.25;;;21.60;;
21894;SDS011;11112;51.270;7.224;2023-08-30T06:43:13;27.63;;;21.65;;
21894;SDS011;11112;51.270;7.224;2023-08-30T06:45:40;24.38;;;20.85;;
21894;SDS011;11112;51.270;7.224;2023-08-30T06:48:09;24.30;;;20.58;;
21894;SDS011;11112;51.270;7.224;2023-08-30T06:50:37;29.60;;;20.48;;
21894;SDS011;11112;51.270;7.224;2023-08-30T06:53:04;26.30;;;20.50;;
21894;SDS011;11112;51.270;7.224;2023-08-30T06:55:31;22.13;;;19.65;;
21894;SDS011;11112;51.270;7.224;2023-08-30T06:58:02;22.70;;;19.27;;
21894;SDS011;11112;51.270;7.224;2023-08-30T07:00:31;21.50;;;17.98;;
21894;SDS011;11112;51.270;7.224;2023-08-30T07:02:58;21.80;;;19.00;;
21894;SDS011;11112;51.270;7.224;2023-08-30T07:05:27;25.30;;;18.05;;
21894;SDS011;11112;51.270;7.224;2023-08-30T07:07:54;22.45;;;17.52;;
21894;SDS011;11112;51.270;7.224;2023-08-30T07:10:21;19.35;;;17.08;;
21894;SDS011;11112;51.270;7.224;2023-08-30T07:12:48;21.20;;;16.33;;
21894;SDS011;11112;51.270;7.224;2023-08-30T07:15:15;19.52;;;15.77;;
21894;SDS011;11112;51.270;7.224;2023-08-30T07:17:43;19.17;;;15.40;;
21894;SDS011;11112;51.270;7.224;2023-08-30T07:20:11;18.13;;;14.68;;
21894;SDS011;11112;51.270;7.224;2023-08-30T07:22:39;17.63;;;14.75;;
21894;SDS011;11112;51.270;7.224;2023-08-30T07:25:07;16.92;;;12.82;;
21894;SDS011;11112;51.270;7.224;2023-08-30T07:27:35;14.50;;;11.13;;
21894;SDS011;11112;51.270;7.224;2023-08-30T07:30:03;13.63;;;10.52;;
21894;SDS011;11112;51.270;7.224;2023-08-30T07:32:32;14.40;;;9.98;;
21894;SDS011;11112;51.270;7.224;2023-08-30T07:35:01;15.20;;;9.75;;
21894;SDS011;11112;51.270;7.224;2023-08-30T07:37:28;15.02;;;9.80;;
21894;SDS011;11112;51.270;7.224;2023-08-30T07:39:56;14.73;;;9.50;;
21894;SDS011;11112;51.270;7.224;2023-08-30T07:42:23;14.85;;;9.13;;
21894;SDS011;11112;51.270;7.224;2023-08-30T07:44:50;12.95;;;8.75;;
21894;SDS011;11112;51.270;7.224;2023-08-30T07:47:17;9.68;;;8.35;;
21894;SDS011;11112;51.270;7.224;2023-08-30T07:49:44;12.02;;;7.85;;
21894;SDS011;11112;51.270;7.224;2023-08-30T07:52:11;9.90;;;8.18;;
21894;SDS011;11112;51.270;7.224;2023-08-30T07:54:39;8.82;;;6.55;;
21894;SDS011;11112;51.270;7.224;2023-08-30T07:57:08;8.27;;;6.07;;
21894;SDS011;11112;51.270;7.224;2023-08-30T07:59:35;8.70;;;6.72;;
21894;SDS011;11112;51.270;7.224;2023-08-30T08:02:03;9.30;;;6.90;;
21894;SDS011;11112;51.270;7.224;2023-08-30T08:04:32;8.45;;;6.38;;
21894;SDS011;11112;51.270;7.224;2023-08-30T08:07:00;10.05;;;6.35;;
21894;SDS011;11112;51.270;7.224;2023-08-30T08:09:27;10.85;;;6.20;;
21894;SDS011;11112;51.270;7.224;2023-08-30T08:11:55;10.55;;;5.65;;
21894;SDS011;11112;51.270;7.224;2023-08-30T08:14:23;7.28;;;5.30;;
21894;SDS011;11112;51.270;7.224;2023-08-30T08:16:51;10.45;;;5.45;;
21894;SDS011;11112;51.270;7.224;2023-08-30T08:19:18;7.97;;;4.90;;
21894;SDS011;11112;51.270;7.224;2023-08-30T08:21:46;8.02;;;5.43;;
21894;SDS011;11112;51.270;7.224;2023-08-30T08:24:14;9.57;;;4.80;;
21894;SDS011;11112;51.270;7.224;2023-08-30T08:26:44;5.80;;;4.30;;
21894;SDS011;11112;51.270;7.224;2023-08-30T08:29:11;6.68;;;4.05;;
21894;SDS011;11112;51.270;7.224;2023-08-30T08:31:40;6.75;;;3.63;;
21894;SDS011;11112;51.270;7.224;2023-08-30T08:34:10;7.05;;;3.92;;
21894;SDS011;11112;51.270;7.224;2023-08-30T08:36:39;5.95;;;3.85;;
21894;SDS011;11112;51.270;7.224;2023-08-30T08:39:08;5.50;;;3.50;;
21894;SDS011;11112;51.270;7.224;2023-08-30T08:41:36;6.47;;;3.80;;
21894;SDS011;11112;51.270;7.224;2023-08-30T08:44:08;6.80;;;3.38;;
21894;SDS011;11112;51.270;7.224;2023-08-30T08:46:37;5.25;;;3.50;;
21894;SDS011;11112;51.270;7.224;2023-08-30T08:49:08;6.18;;;3.80;;
21894;SDS011;11112;51.270;7.224;2023-08-30T08:51:38;6.88;;;3.72;;
21894;SDS011;11112;51.270;7.224;2023-08-30T08:54:08;6.28;;;3.28;;
21894;SDS011;11112;51.270;7.224;2023-08-30T08:56:37;7.80;;;3.75;;
21894;SDS011;11112;51.270;7.224;2023-08-30T08:59:05;7.60;;;3.78;;
21894;SDS011;11112;51.270;7.224;2023-08-30T09:01:33;5.45;;;3.40;;
21894;SDS011;11112;51.270;7.224;2023-08-30T09:04:05;7.22;;;3.58;;
21894;SDS011;11112;51.270;7.224;2023-08-30T09:06:33;6.70;;;3.50;;
21894;SDS011;11112;51.270;7.224;2023-08-30T09:09:01;6.03;;;3.40;;
21894;SDS011;11112;51.270;7.224;2023-08-30T09:11:29;6.78;;;3.58;;
21894;SDS011;11112;51.270;7.224;2023-08-30T09:13:56;4.88;;;3.15;;
21894;SDS011;11112;51.270;7.224;2023-08-30T09:16:24;7.72;;;3.28;;
21894;SDS011;11112;51.270;7.224;2023-08-30T09:18:57;5.07;;;3.40;;
21894;SDS011;11112;51.270;7.224;2023-08-30T09:21:26;7.32;;;3.80;;
21894;SDS011;11112;51.270;7.224;2023-08-30T09:23:56;5.03;;;3.35;;
21894;SDS011;11112;51.270;7.224;2023-08-30T09:26:25;6.15;;;3.60;;
21894;SDS011;11112;51.270;7.224;2023-08-30T09:28:53;6.30;;;3.58;;
21894;SDS011;11112;51.270;7.224;2023-08-30T09:31:21;5.00;;;3.25;;
21894;SDS011;11112;51.270;7.224;2023-08-30T09:33:48;6.68;;;3.55;;
21894;SDS011;11112;51.270;7.224;2023-08-30T09:36:15;6.75;;;3.53;;
21894;SDS011;11112;51.270;7.224;2023-08-30T09:38:49;5.88;;;3.05;;
21894;SDS011;11112;51.270;7.224;2023-08-30T09:41:17;6.25;;;3.00;;
21894;SDS011;11112;51.270;7.224;2023-08-30T09:43:44;6.63;;;3.15;;
21894;SDS011;11112;51.270;7.224;2023-08-30T09:46:13;7.00;;;3.40;;
21894;SDS011;11112;51.270;7.224;2023-08-30T09:48:40;6.22;;;3.55;;
21894;SDS011;11112;51.270;7.224;2023-08-30T09:51:08;6.40;;;3.08;;
21894;SDS011;11112;51.270;7.224;2023-08-30T09:53:39;7.68;;;3.33;;
21894;SDS011;11112;51.270;7.224;2023-08-30T09:56:13;6.90;;;3.13;;
21894;SDS011;11112;51.270;7.224;2023-08-30T09:58:40;8.18;;;4.40;;
21894;SDS011;11112;51.270;7.224;2023-08-30T10:01:08;8.60;;;3.58;;
21894;SDS011;11112;51.270;7.224;2023-08-30T10:03:37;6.68;;;3.03;;
21894;SDS011;11112;51.270;7.224;2023-08-30T10:06:05;6.03;;;3.40;;
21894;SDS011;11112;51.270;7.224;2023-08-30T10:08:33;4.95;;;3.30;;
21894;SDS011;11112;51.270;7.224;2023-08-30T10:11:04;5.55;;;3.38;;
21894;SDS011;11112;51.270;7.224;2023-08-30T10:13:34;5.38;;;3.72;;
21894;SDS011;11112;51.270;7.224;2023-08-30T10:16:03;8.18;;;3.90;;
21894;SDS011;11112;51.270;7.224;2023-08-30T10:18:31;6.35;;;3.90;;
21894;SDS011;11112;51.270;7.224;2023-08-30T10:21:01;6.45;;;3.92;;
21894;SDS011;11112;51.270;7.224;2023-08-30T10:23:33;7.03;;;4.10;;
21894;SDS011;11112;51.270;7.224;2023-08-30T10:26:03;6.97;;;3.97;;
21894;SDS011;11112;51.270;7.224;2023-08-30T10:28:32;8.75;;;4.07;;
21894;SDS011;11112;51.270;7.224;2023-08-30T10:31:01;6.82;;;3.58;;
21894;SDS011;11112;51.270;7.224;2023-08-30T10:33:29;7.38;;;3.67;;
21894;SDS011;11112;51.270;7.224;2023-08-30T10:36:02;5.65;;;3.67;;
21894;SDS011;11112;51.270;7.224;2023-08-30T10:38:32;8.90;;;3.70;;
21894;SDS011;11112;51.270;7.224;2023-08-30T10:41:06;5.85;;;3.45;;
21894;SDS011;11112;51.270;7.224;2023-08-30T10:43:36;5.47;;;3.40;;
21894;SDS011;11112;51.270;7.224;2023-08-30T10:46:04;6.45;;;3.38;;
21894;SDS011;11112;51.270;7.224;2023-08-30T10:48:36;7.80;;;3.30;;
21894;SDS011;11112;51.270;7.224;2023-08-30T10:51:05;5.07;;;3.33;;
21894;SDS011;11112;51.270;7.224;2023-08-30T10:53:56;5.18;;;3.17;;
21894;SDS011;11112;51.270;7.224;2023-08-30T10:56:27;6.32;;;3.08;;
21894;SDS011;11112;51.270;7.224;2023-08-30T10:58:57;6.40;;;3.42;;
21894;SDS011;11112;51.270;7.224;2023-08-30T11:01:24;5.70;;;3.17;;
21894;SDS011;11112;51.270;7.224;2023-08-30T11:03:51;5.55;;;3.00;;
21894;SDS011;11112;51.270;7.224;2023-08-30T11:06:19;5.05;;;3.35;;
21894;SDS011;11112;51.270;7.224;2023-08-30T11:08:47;5.78;;;3.20;;
21894;SDS011;11112;51.270;7.224;2023-08-30T11:11:16;7.22;;;3.67;;
21894;SDS011;11112;51.270;7.224;2023-08-30T11:13:43;5.93;;;3.75;;
21894;SDS011;11112;51.270;7.224;2023-08-30T11:16:12;5.07;;;3.55;;
21894;SDS011;11112;51.270;7.224;2023-08-30T11:18:41;4.82;;;3.40;;
21894;SDS011;11112;51.270;7.224;2023-08-30T11:21:10;6.88;;;4.20;;
21894;SDS011;11112;51.270;7.224;2023-08-30T11:23:38;6.75;;;4.05;;
21894;SDS011;11112;51.270;7.224;2023-08-30T11:26:05;5.93;;;4.03;;
21894;SDS011;11112;51.270;7.224;2023-08-30T11:28:35;7.40;;;4.13;;
21894;SDS011;11112;51.270;7.224;2023-08-30T11:31:06;6.85;;;4.00;;
21894;SDS011;11112;51.270;7.224;2023-08-30T11:33:39;8.68;;;4.70;;
21894;SDS011;11112;51.270;7.224;2023-08-30T11:36:07;6.95;;;4.22;;
21894;SDS011;11112;51.270;7.224;2023-08-30T11:38:35;8.77;;;4.80;;
21894;SDS011;11112;51.270;7.224;2023-08-30T11:41:04;6.78;;;5.15;;
21894;SDS011;11112;51.270;7.224;2023-08-30T11:43:33;8.90;;;5.68;;
21894;SDS011;11112;51.270;7.224;2023-08-30T11:46:02;8.10;;;5.57;;
21894;SDS011;11112;51.270;7.224;2023-08-30T11:48:30;8.95;;;5.25;;
21894;SDS011;11112;51.270;7.224;2023-08-30T11:51:03;9.20;;;5.35;;
21894;SDS011;11112;51.270;7.224;2023-08-30T11:53:30;7.85;;;5.05;;
21894;SDS011;11112;51.270;7.224;2023-08-30T11:56:00;5.22;;;3.53;;
21894;SDS011;11112;51.270;7.224;2023-08-30T11:58:28;5.95;;;3.25;;
21894;SDS011;11112;51.270;7.224;2023-08-30T12:00:59;4.85;;;2.88;;
21894;SDS011;11112;51.270;7.224;2023-08-30T12:03:28;5.68;;;1.90;;
21894;SDS011;11112;51.270;7.224;2023-08-30T12:05:56;2.75;;;1.27;;
21894;SDS011;11112;51.270;7.224;2023-08-30T12:08:28;1.88;;;1.20;;
21894;SDS011;11112;51.270;7.224;2023-08-30T12:10:57;2.90;;;1.10;;
21894;SDS011;11112;51.270;7.224;2023-08-30T12:13:28;3.00;;;1.10;;
21894;SDS011;11112;51.270;7.224;2023-08-30T12:15:59;1.80;;;1.02;;
21894;SDS011;11112;51.270;7.224;2023-08-30T12:18:28;2.53;;;1.00;;
21894;SDS011;11112;51.270;7.224;2023-08-30T12:20:59;1.95;;;1.20;;
21894;SDS011;11112;51.270;7.224;2023-08-30T12:23:29;2.95;;;1.10;;
21894;SDS011;11112;51.270;7.224;2023-08-30T12:26:02;2.00;;;1.20;;
21894;SDS011;11112;51.270;7.224;2023-08-30T12:28:31;1.95;;;1.25;;
21894;SDS011;11112;51.270;7.224;2023-08-30T12:31:01;1.65;;;0.93;;
21894;SDS011;11112;51.270;7.224;2023-08-30T12:33:30;2.05;;;1.30;;
21894;SDS011;11112;51.270;7.224;2023-08-30T12:35:59;2.35;;;1.20;;
21894;SDS011;11112;51.270;7.224;2023-08-30T12:38:30;2.60;;;1.20;;
21894;SDS011;11112;51.270;7.224;2023-08-30T12:40:57;2.25;;;1.02;;
21894;SDS011;11112;51.270;7.224;2023-08-30T12:43:25;2.15;;;1.10;;
21894;SDS011;11112;51.270;7.224;2023-08-30T12:45:54;2.45;;;1.25;;
21894;SDS011;11112;51.270;7.224;2023-08-30T12:48:23;1.15;;;0.90;;
21894;SDS011;11112;51.270;7.224;2023-08-30T12:50:51;2.72;;;1.17;;
21894;SDS011;11112;51.270;7.224;2023-08-30T12:53:18;1.60;;;1.17;;
21894;SDS011;11112;51.270;7.224;2023-08-30T12:55:48;2.25;;;1.30;;
21894;SDS011;11112;51.270;7.224;2023-08-30T12:58:15;1.92;;;1.30;;
21894;SDS011;11112;51.270;7.224;2023-08-30T13:00:44;2.05;;;1.25;;
21894;SDS011;11112;51.270;7.224;2023-08-30T13:03:12;2.13;;;1.23;;
21894;SDS011;11112;51.270;7.224;2023-08-30T13:05:39;1.67;;;1.10;;
21894;SDS011;11112;51.270;7.224;2023-08-30T13:08:06;1.73;;;1.00;;
21894;SDS011;11112;51.270;7.224;2023-08-30T13:10:34;1.60;;;0.90;;
21894;SDS011;11112;51.270;7.224;2023-08-30T13:13:03;1.90;;;1.00;;
21894;SDS011;11112;51.270;7.224;2023-08-30T13:15:33;1.20;;;0.80;;
21894;SDS011;11112;51.270;7.224;2023-08-30T13:18:01;1.50;;;0.90;;
21894;SDS011;11112;51.270;7.224;2023-08-30T13:20:28;1.65;;;0.90;;
21894;SDS011;11112;51.270;7.224;2023-08-30T13:22:56;1.75;;;1.17;;
21894;SDS011;11112;51.270;7.224;2023-08-30T13:25:23;4.10;;;2.63;;
21894;SDS011;11112;51.270;7.224;2023-08-30T13:27:52;1.88;;;1.30;;
21894;SDS011;11112;51.270;7.224;2023-08-30T13:30:20;3.05;;;1.58;;
21894;SDS011;11112;51.270;7.224;2023-08-30T13:32:48;2.40;;;1.75;;
21894;SDS011;11112;51.270;7.224;2023-08-30T13:35:15;3.92;;;2.40;;
21894;SDS011;11112;51.270;7.224;2023-08-30T13:37:42;4.25;;;2.20;;
21894;SDS011;11112;51.270;7.224;2023-08-30T13:40:10;4.55;;;2.58;;
21894;SDS011;11112;51.270;7.224;2023-08-30T13:42:38;3.42;;;2.47;;
21894;SDS011;11112;51.270;7.224;2023-08-30T13:45:05;3.90;;;2.38;;
21894;SDS011;11112;51.270;7.224;2023-08-30T13:47:36;3.50;;;2.30;;
21894;SDS011;11112;51.270;7.224;2023-08-30T13:50:04;3.33;;;1.92;;
21894;SDS011;11112;51.270;7.224;2023-08-30T13:52:34;3.40;;;1.95;;
21894;SDS011;11112;51.270;7.224;2023-08-30T13:55:01;4.95;;;1.90;;
21894;SDS011;11112;51.270;7.224;2023-08-30T13:57:30;3.30;;;1.90;;
21894;SDS011;11112;51.270;7.224;2023-08-30T13:59:57;2.33;;;1.67;;
21894;SDS011;11112;51.270;7.224;2023-08-30T14:02:25;6.20;;;4.38;;
21894;SDS011;11112;51.270;7.224;2023-08-30T14:04:55;3.70;;;2.38;;
21894;SDS011;11112;51.270;7.224;2023-08-30T14:07:23;2.97;;;1.90;;
21894;SDS011;11112;51.270;7.224;2023-08-30T14:09:50;2.70;;;1.80;;
21894;SDS011;11112;51.270;7.224;2023-08-30T14:12:18;2.25;;;1.65;;
21894;SDS011;11112;51.270;7.224;2023-08-30T14:14:45;3.25;;;1.98;;
21894;SDS011;11112;51.270;7.224;2023-08-30T14:17:12;2.65;;;1.70;;
21894;SDS011;11112;51.270;7.224;2023-08-30T14:19:40;2.33;;;1.60;;
21894;SDS011;11112;51.270;7.224;2023-08-30T14:22:08;2.88;;;1.63;;
21894;SDS011;11112;51.270;7.224;2023-08-30T14:24:37;4.25;;;2.13;;
21894;SDS011;11112;51.270;7.224;2023-08-30T14:27:04;2.40;;;1.60;;
21894;SDS011;11112;51.270;7.224;2023-08-30T14:29:32;2.47;;;1.60;;
21894;SDS011;11112;51.270;7.224;2023-08-30T14:32:00;2.22;;;1.48;;
21894;SDS011;11112;51.270;7.224;2023-08-30T14:34:28;4.00;;;1.45;;
21894;SDS011;11112;51.270;7.224;2023-08-30T14:36:55;2.28;;;1.50;;
21894;SDS011;11112;51.270;7.224;2023-08-30T14:39:24;3.72;;;1.50;;
21894;SDS011;11112;51.270;7.224;2023-08-30T14:41:51;2.17;;;1.63;;
21894;SDS011;11112;51.270;7.224;2023-08-30T14:44:19;3.50;;;1.67;;